sensor_id;sensor_type;location;lat;lon;timestamp;P1;durP1;ratioP1;P2;durP2;ratioP2
10491;SDS011;5293;51.464;-2.566;2023-04-22T00:00:52;19.30;;;11.90;;
10491;SDS011;5293;51.464;-2.566;2023-04-22T00:03:18;20.07;;;12.17;;
10491;SDS011;5293;51.464;-2.566;2023-04-22T00:05:46;20.00;;;12.60;;
10491;SDS011;5293;51.464;-2.566;2023-04-22T00:08:12;18.13;;;11.80;;
10491;SDS011;5293;51.464;-2.566;2023-04-22T00:10:38;18.60;;;12.10;;
10491;SDS011;5293;51.464;-2.566;2023-04-22T00:13:03;17.77;;;11.80;;
10491;SDS011;5293;51.464;-2.566;2023-04-22T00:15:29;17.57;;;11.50;;
10491;SDS011;5293;51.464;-2.566;2023-04-22T00:17:56;17.80;;;10.60;;
10491;SDS011;5293;51.464;-2.566;2023-04-22T00:20:23;13.87;;;9.33;;
10491;SDS011;5293;51.464;-2.566;2023-04-22T00:22:49;16.33;;;10.37;;
10491;SDS011;5293;51.464;-2.566;2023-04-22T00:25:15;14.53;;;10.37;;
10491;SDS011;5293;51.464;-2.566;2023-04-22T00:27:41;15.27;;;10.07;;
10491;SDS011;5293;51.464;-2.566;2023-04-22T00:30:08;17.13;;;9.87;;
10491;SDS011;5293;51.464;-2.566;2023-04-22T00:32:35;12.70;;;8.73;;
10491;SDS011;5293;51.464;-2.566;2023-04-22T00:35:00;14.67;;;10.20;;
10491;SDS011;5293;51.464;-2.566;2023-04-22T00:37:26;15.47;;;9.90;;
10491;SDS011;5293;51.464;-2.566;2023-04-22T00:39:52;13.10;;;8.80;;
10491;SDS011;5293;51.464;-2.566;2023-04-22T00:42:18;13.37;;;9.53;;
10491;SDS011;5293;51.464;-2.566;2023-04-22T00:44:45;14.53;;;8.80;;
10491;SDS011;5293;51.464;-2.566;2023-04-22T00:47:12;14.80;;;9.93;;
10491;SDS011;5293;51.464;-2.566;2023-04-22T00:49:38;17.60;;;10.47;;
10491;SDS011;5293;51.464;-2.566;2023-04-22T00:52:04;18.53;;;11.17;;
10491;SDS011;5293;51.464;-2.566;2023-04-22T00:54:30;17.70;;;10.47;;
10491;SDS011;5293;51.464;-2.566;2023-04-22T00:56:59;13.07;;;9.00;;
10491;SDS011;5293;51.464;-2.566;2023-04-22T00:59:26;16.60;;;10.00;;
10491;SDS011;5293;51.464;-2.566;2023-04-22T01:01:51;14.43;;;10.30;;
10491;SDS011;5293;51.464;-2.566;2023-04-22T01:04:18;15.57;;;10.37;;
10491;SDS011;5293;51.464;-2.566;2023-04-22T01:06:45;14.80;;;10.07;;
10491;SDS011;5293;51.464;-2.566;2023-04-22T01:09:15;14.07;;;10.00;;
10491;SDS011;5293;51.464;-2.566;2023-04-22T01:11:42;15.97;;;10.47;;
10491;SDS011;5293;51.464;-2.566;2023-04-22T01:14:09;18.50;;;10.40;;
10491;SDS011;5293;51.464;-2.566;2023-04-22T01:16:34;15.17;;;9.97;;
10491;SDS011;5293;51.464;-2.566;2023-04-22T01:19:02;16.60;;;10.37;;
10491;SDS011;5293;51.464;-2.566;2023-04-22T01:21:30;17.80;;;11.07;;
10491;SDS011;5293;51.464;-2.566;2023-04-22T01:24:01;18.67;;;12.10;;
10491;SDS011;5293;51.464;-2.566;2023-04-22T01:26:27;18.30;;;11.70;;
10491;SDS011;5293;51.464;-2.566;2023-04-22T01:28:53;17.83;;;11.03;;
10491;SDS011;5293;51.464;-2.566;2023-04-22T01:31:19;18.10;;;10.27;;
10491;SDS011;5293;51.464;-2.566;2023-04-22T01:33:45;16.77;;;9.47;;
10491;SDS011;5293;51.464;-2.566;2023-04-22T01:36:12;14.70;;;9.40;;
10491;SDS011;5293;51.464;-2.566;2023-04-22T01:38:38;12.57;;;9.00;;
10491;SDS011;5293;51.464;-2.566;2023-04-22T01:41:04;14.20;;;9.43;;
10491;SDS011;5293;51.464;-2.566;2023-04-22T01:43:30;16.70;;;10.13;;
10491;SDS011;5293;51.464;-2.566;2023-04-22T01:45:57;15.00;;;9.67;;
10491;SDS011;5293;51.464;-2.566;2023-04-22T01:48:26;15.37;;;10.37;;
10491;SDS011;5293;51.464;-2.566;2023-04-22T01:50:52;15.77;;;10.47;;
10491;SDS011;5293;51.464;-2.566;2023-04-22T01:53:17;16.20;;;9.77;;
10491;SDS011;5293;51.464;-2.566;2023-04-22T01:55:43;17.07;;;10.03;;
10491;SDS011;5293;51.464;-2.566;2023-04-22T01:58:09;18.07;;;10.97;;
10491;SDS011;5293;51.464;-2.566;2023-04-22T02:00:34;17.83;;;10.80;;
10491;SDS011;5293;51.464;-2.566;2023-04-22T02:03:00;19.63;;;10.83;;
10491;SDS011;5293;51.464;-2.566;2023-04-22T02:05:26;16.53;;;10.60;;
10491;SDS011;5293;51.464;-2.566;2023-04-22T02:07:52;18.43;;;10.90;;
10491;SDS011;5293;51.464;-2.566;2023-04-22T02:10:19;17.50;;;11.17;;
10491;SDS011;5293;51.464;-2.566;2023-04-22T02:12:44;17.20;;;10.87;;
10491;SDS011;5293;51.464;-2.566;2023-04-22T02:15:10;15.93;;;10.63;;
10491;SDS011;5293;51.464;-2.566;2023-04-22T02:17:36;17.60;;;11.67;;
10491;SDS011;5293;51.464;-2.566;2023-04-22T02:20:03;15.23;;;11.10;;
10491;SDS011;5293;51.464;-2.566;2023-04-22T02:22:30;18.60;;;11.47;;
10491;SDS011;5293;51.464;-2.566;2023-04-22T02:24:56;16.63;;;10.60;;
10491;SDS011;5293;51.464;-2.566;2023-04-22T02:27:22;17.43;;;11.43;;
10491;SDS011;5293;51.464;-2.566;2023-04-22T02:29:48;14.57;;;10.07;;
10491;SDS011;5293;51.464;-2.566;2023-04-22T02:32:13;15.67;;;9.50;;
10491;SDS011;5293;51.464;-2.566;2023-04-22T02:34:41;14.97;;;9.87;;
10491;SDS011;5293;51.464;-2.566;2023-04-22T02:37:07;14.47;;;9.13;;
10491;SDS011;5293;51.464;-2.566;2023-04-22T02:39:33;12.83;;;9.30;;
10491;SDS011;5293;51.464;-2.566;2023-04-22T02:41:58;11.87;;;8.63;;
10491;SDS011;5293;51.464;-2.566;2023-04-22T02:44:25;15.03;;;9.70;;
10491;SDS011;5293;51.464;-2.566;2023-04-22T02:46:50;13.47;;;9.20;;
10491;SDS011;5293;51.464;-2.566;2023-04-22T02:49:16;13.37;;;9.83;;
10491;SDS011;5293;51.464;-2.566;2023-04-22T02:51:42;13.00;;;8.73;;
10491;SDS011;5293;51.464;-2.566;2023-04-22T02:54:07;14.50;;;9.20;;
10491;SDS011;5293;51.464;-2.566;2023-04-22T02:56:33;13.67;;;9.23;;
10491;SDS011;5293;51.464;-2.566;2023-04-22T02:59:00;14.53;;;9.20;;
10491;SDS011;5293;51.464;-2.566;2023-04-22T03:01:25;14.00;;;9.43;;
10491;SDS011;5293;51.464;-2.566;2023-04-22T03:03:51;12.60;;;8.80;;
10491;SDS011;5293;51.464;-2.566;2023-04-22T03:06:17;13.77;;;8.57;;
10491;SDS011;5293;51.464;-2.566;2023-04-22T03:08:42;15.33;;;9.60;;
10491;SDS011;5293;51.464;-2.566;2023-04-22T03:11:08;13.87;;;9.73;;
10491;SDS011;5293;51.464;-2.566;2023-04-22T03:13:34;12.30;;;9.07;;
10491;SDS011;5293;51.464;-2.566;2023-04-22T03:15:59;16.07;;;9.47;;
10491;SDS011;5293;51.464;-2.566;2023-04-22T03:18:25;12.40;;;8.93;;
10491;SDS011;5293;51.464;-2.566;2023-04-22T03:20:50;12.30;;;9.03;;
10491;SDS011;5293;51.464;-2.566;2023-04-22T03:23:16;12.47;;;8.60;;
10491;SDS011;5293;51.464;-2.566;2023-04-22T03:25:42;13.20;;;9.10;;
10491;SDS011;5293;51.464;-2.566;2023-04-22T03:28:07;11.13;;;8.07;;
10491;SDS011;5293;51.464;-2.566;2023-04-22T03:30:33;16.70;;;9.40;;
10491;SDS011;5293;51.464;-2.566;2023-04-22T03:32:59;13.43;;;8.97;;
10491;SDS011;5293;51.464;-2.566;2023-04-22T03:35:25;13.77;;;8.27;;
10491;SDS011;5293;51.464;-2.566;2023-04-22T03:37:50;12.53;;;8.73;;
10491;SDS011;5293;51.464;-2.566;2023-04-22T03:40:16;13.33;;;8.23;;
10491;SDS011;5293;51.464;-2.566;2023-04-22T03:42:42;11.70;;;8.33;;
10491;SDS011;5293;51.464;-2.566;2023-04-22T03:45:07;11.13;;;8.00;;
10491;SDS011;5293;51.464;-2.566;2023-04-22T03:47:33;12.13;;;8.40;;
10491;SDS011;5293;51.464;-2.566;2023-04-22T03:49:59;14.83;;;8.70;;
10491;SDS011;5293;51.464;-2.566;2023-04-22T03:52:24;13.87;;;8.37;;
10491;SDS011;5293;51.464;-2.566;2023-04-22T03:54:50;12.73;;;8.03;;
10491;SDS011;5293;51.464;-2.566;2023-04-22T03:57:16;11.60;;;8.10;;
10491;SDS011;5293;51.464;-2.566;2023-04-22T03:59:42;10.80;;;7.90;;
10491;SDS011;5293;51.464;-2.566;2023-04-22T04:02:07;11.53;;;7.70;;
10491;SDS011;5293;51.464;-2.566;2023-04-22T04:04:33;11.87;;;7.40;;
10491;SDS011;5293;51.464;-2.566;2023-04-22T04:06:59;11.37;;;7.93;;
10491;SDS011;5293;51.464;-2.566;2023-04-22T04:09:25;11.77;;;7.30;;
10491;SDS011;5293;51.464;-2.566;2023-04-22T04:11:51;10.63;;;7.60;;
10491;SDS011;5293;51.464;-2.566;2023-04-22T04:14:16;10.17;;;7.47;;
10491;SDS011;5293;51.464;-2.566;2023-04-22T04:16:42;11.73;;;8.10;;
10491;SDS011;5293;51.464;-2.566;2023-04-22T04:19:08;15.43;;;7.83;;
10491;SDS011;5293;51.464;-2.566;2023-04-22T04:21:34;12.00;;;8.37;;
10491;SDS011;5293;51.464;-2.566;2023-04-22T04:24:00;15.43;;;8.17;;
10491;SDS011;5293;51.464;-2.566;2023-04-22T04:26:27;13.97;;;8.17;;
10491;SDS011;5293;51.464;-2.566;2023-04-22T04:28:53;12.43;;;8.83;;
10491;SDS011;5293;51.464;-2.566;2023-04-22T04:31:19;11.93;;;8.07;;
10491;SDS011;5293;51.464;-2.566;2023-04-22T04:33:45;12.20;;;8.03;;
10491;SDS011;5293;51.464;-2.566;2023-04-22T04:36:11;12.67;;;8.50;;
10491;SDS011;5293;51.464;-2.566;2023-04-22T04:38:38;13.10;;;8.60;;
10491;SDS011;5293;51.464;-2.566;2023-04-22T04:41:03;11.80;;;8.50;;
10491;SDS011;5293;51.464;-2.566;2023-04-22T04:43:29;13.33;;;8.93;;
10491;SDS011;5293;51.464;-2.566;2023-04-22T04:45:56;14.27;;;8.60;;
10491;SDS011;5293;51.464;-2.566;2023-04-22T04:48:21;14.07;;;9.27;;
10491;SDS011;5293;51.464;-2.566;2023-04-22T04:50:50;12.23;;;8.30;;
10491;SDS011;5293;51.464;-2.566;2023-04-22T04:53:18;12.67;;;8.33;;
10491;SDS011;5293;51.464;-2.566;2023-04-22T04:55:45;13.70;;;8.93;;
10491;SDS011;5293;51.464;-2.566;2023-04-22T04:58:11;11.33;;;8.63;;
10491;SDS011;5293;51.464;-2.566;2023-04-22T05:00:37;11.57;;;8.17;;
10491;SDS011;5293;51.464;-2.566;2023-04-22T05:03:03;10.63;;;7.73;;
10491;SDS011;5293;51.464;-2.566;2023-04-22T05:05:28;9.57;;;7.10;;
10491;SDS011;5293;51.464;-2.566;2023-04-22T05:07:54;10.53;;;7.63;;
10491;SDS011;5293;51.464;-2.566;2023-04-22T05:10:20;10.60;;;7.53;;
10491;SDS011;5293;51.464;-2.566;2023-04-22T05:12:46;10.63;;;7.53;;
10491;SDS011;5293;51.464;-2.566;2023-04-22T05:15:12;12.70;;;7.73;;
10491;SDS011;5293;51.464;-2.566;2023-04-22T05:17:38;11.00;;;7.83;;
10491;SDS011;5293;51.464;-2.566;2023-04-22T05:20:04;11.93;;;7.97;;
10491;SDS011;5293;51.464;-2.566;2023-04-22T05:22:30;12.67;;;8.57;;
10491;SDS011;5293;51.464;-2.566;2023-04-22T05:24:56;13.90;;;8.53;;
10491;SDS011;5293;51.464;-2.566;2023-04-22T05:27:22;15.07;;;9.83;;
10491;SDS011;5293;51.464;-2.566;2023-04-22T05:29:48;14.67;;;8.20;;
10491;SDS011;5293;51.464;-2.566;2023-04-22T05:32:13;12.40;;;8.07;;
10491;SDS011;5293;51.464;-2.566;2023-04-22T05:34:39;22.03;;;9.30;;
10491;SDS011;5293;51.464;-2.566;2023-04-22T05:37:05;27.87;;;8.90;;
10491;SDS011;5293;51.464;-2.566;2023-04-22T05:39:30;30.33;;;8.70;;
10491;SDS011;5293;51.464;-2.566;2023-04-22T05:41:56;13.47;;;7.53;;
10491;SDS011;5293;51.464;-2.566;2023-04-22T05:44:22;22.10;;;8.57;;
10491;SDS011;5293;51.464;-2.566;2023-04-22T05:46:48;21.50;;;8.53;;
10491;SDS011;5293;51.464;-2.566;2023-04-22T05:49:14;29.17;;;8.97;;
10491;SDS011;5293;51.464;-2.566;2023-04-22T05:51:39;21.97;;;9.03;;
10491;SDS011;5293;51.464;-2.566;2023-04-22T05:54:06;20.03;;;8.47;;
10491;SDS011;5293;51.464;-2.566;2023-04-22T05:56:31;30.03;;;8.77;;
10491;SDS011;5293;51.464;-2.566;2023-04-22T05:58:57;12.53;;;8.10;;
10491;SDS011;5293;51.464;-2.566;2023-04-22T06:01:22;16.03;;;8.47;;
10491;SDS011;5293;51.464;-2.566;2023-04-22T06:03:49;15.30;;;8.67;;
10491;SDS011;5293;51.464;-2.566;2023-04-22T06:06:15;13.50;;;8.07;;
10491;SDS011;5293;51.464;-2.566;2023-04-22T06:08:40;13.90;;;9.20;;
10491;SDS011;5293;51.464;-2.566;2023-04-22T06:11:06;14.20;;;8.97;;
10491;SDS011;5293;51.464;-2.566;2023-04-22T06:13:35;14.00;;;8.40;;
10491;SDS011;5293;51.464;-2.566;2023-04-22T06:16:00;13.47;;;9.10;;
10491;SDS011;5293;51.464;-2.566;2023-04-22T06:18:26;12.30;;;8.73;;
10491;SDS011;5293;51.464;-2.566;2023-04-22T06:20:52;13.17;;;9.67;;
10491;SDS011;5293;51.464;-2.566;2023-04-22T06:23:18;13.17;;;9.43;;
10491;SDS011;5293;51.464;-2.566;2023-04-22T06:25:43;16.37;;;9.20;;
10491;SDS011;5293;51.464;-2.566;2023-04-22T06:28:09;12.80;;;8.80;;
10491;SDS011;5293;51.464;-2.566;2023-04-22T06:30:35;14.27;;;8.40;;
10491;SDS011;5293;51.464;-2.566;2023-04-22T06:33:01;14.43;;;9.23;;
10491;SDS011;5293;51.464;-2.566;2023-04-22T06:35:26;13.37;;;8.67;;
10491;SDS011;5293;51.464;-2.566;2023-04-22T06:37:52;12.80;;;8.57;;
10491;SDS011;5293;51.464;-2.566;2023-04-22T06:40:18;15.30;;;9.13;;
10491;SDS011;5293;51.464;-2.566;2023-04-22T06:42:43;13.17;;;8.70;;
10491;SDS011;5293;51.464;-2.566;2023-04-22T06:45:09;11.70;;;8.63;;
10491;SDS011;5293;51.464;-2.566;2023-04-22T06:47:37;11.43;;;8.90;;
10491;SDS011;5293;51.464;-2.566;2023-04-22T06:50:06;11.27;;;8.73;;
10491;SDS011;5293;51.464;-2.566;2023-04-22T06:52:33;13.23;;;8.57;;
10491;SDS011;5293;51.464;-2.566;2023-04-22T06:54:59;12.73;;;8.03;;
10491;SDS011;5293;51.464;-2.566;2023-04-22T06:57:27;11.57;;;8.90;;
10491;SDS011;5293;51.464;-2.566;2023-04-22T06:59:53;13.37;;;9.30;;
10491;SDS011;5293;51.464;-2.566;2023-04-22T07:02:18;11.80;;;8.90;;
10491;SDS011;5293;51.464;-2.566;2023-04-22T07:04:44;10.57;;;7.97;;
10491;SDS011;5293;51.464;-2.566;2023-04-22T07:07:10;14.07;;;9.43;;
10491;SDS011;5293;51.464;-2.566;2023-04-22T07:09:35;13.53;;;9.27;;
10491;SDS011;5293;51.464;-2.566;2023-04-22T07:12:01;11.13;;;8.90;;
10491;SDS011;5293;51.464;-2.566;2023-04-22T07:14:27;13.90;;;9.03;;
10491;SDS011;5293;51.464;-2.566;2023-04-22T07:16:53;13.10;;;9.43;;
10491;SDS011;5293;51.464;-2.566;2023-04-22T07:19:19;14.17;;;9.53;;
10491;SDS011;5293;51.464;-2.566;2023-04-22T07:21:45;15.73;;;10.17;;
10491;SDS011;5293;51.464;-2.566;2023-04-22T07:24:11;16.43;;;11.17;;
10491;SDS011;5293;51.464;-2.566;2023-04-22T07:26:38;15.63;;;10.37;;
10491;SDS011;5293;51.464;-2.566;2023-04-22T07:29:05;15.87;;;9.83;;
10491;SDS011;5293;51.464;-2.566;2023-04-22T07:31:32;16.27;;;11.00;;
10491;SDS011;5293;51.464;-2.566;2023-04-22T07:33:59;15.40;;;10.67;;
10491;SDS011;5293;51.464;-2.566;2023-04-22T07:36:25;15.43;;;10.60;;
10491;SDS011;5293;51.464;-2.566;2023-04-22T07:38:51;16.90;;;11.07;;
10491;SDS011;5293;51.464;-2.566;2023-04-22T07:41:16;14.93;;;9.93;;
10491;SDS011;5293;51.464;-2.566;2023-04-22T07:43:42;12.93;;;9.63;;
10491;SDS011;5293;51.464;-2.566;2023-04-22T07:46:07;13.80;;;10.13;;
10491;SDS011;5293;51.464;-2.566;2023-04-22T07:48:33;15.53;;;10.60;;
10491;SDS011;5293;51.464;-2.566;2023-04-22T07:50:59;18.00;;;11.30;;
10491;SDS011;5293;51.464;-2.566;2023-04-22T07:53:25;18.10;;;11.00;;
10491;SDS011;5293;51.464;-2.566;2023-04-22T07:55:50;16.27;;;11.13;;
10491;SDS011;5293;51.464;-2.566;2023-04-22T07:58:16;15.47;;;11.00;;
10491;SDS011;5293;51.464;-2.566;2023-04-22T08:00:42;14.63;;;10.10;;
10491;SDS011;5293;51.464;-2.566;2023-04-22T08:14:03;19.73;;;12.07;;
10491;SDS011;5293;51.464;-2.566;2023-04-22T08:16:28;19.73;;;12.77;;
10491;SDS011;5293;51.464;-2.566;2023-04-22T08:18:54;18.83;;;11.70;;
10491;SDS011;5293;51.464;-2.566;2023-04-22T08:21:21;25.27;;;14.37;;
10491;SDS011;5293;51.464;-2.566;2023-04-22T08:23:47;23.10;;;13.97;;
10491;SDS011;5293;51.464;-2.566;2023-04-22T08:26:12;24.00;;;14.47;;
10491;SDS011;5293;51.464;-2.566;2023-04-22T08:28:40;26.73;;;15.00;;
10491;SDS011;5293;51.464;-2.566;2023-04-22T08:31:06;26.57;;;15.37;;
10491;SDS011;5293;51.464;-2.566;2023-04-22T08:33:34;27.80;;;16.17;;
10491;SDS011;5293;51.464;-2.566;2023-04-22T08:35:59;24.63;;;15.20;;
10491;SDS011;5293;51.464;-2.566;2023-04-22T08:38:27;26.63;;;15.40;;
10491;SDS011;5293;51.464;-2.566;2023-04-22T08:40:54;24.57;;;14.63;;
10491;SDS011;5293;51.464;-2.566;2023-04-22T08:43:21;22.43;;;13.83;;
10491;SDS011;5293;51.464;-2.566;2023-04-22T08:45:47;25.90;;;14.73;;
10491;SDS011;5293;51.464;-2.566;2023-04-22T08:48:13;22.73;;;14.73;;
10491;SDS011;5293;51.464;-2.566;2023-04-22T08:50:40;27.97;;;15.27;;
10491;SDS011;5293;51.464;-2.566;2023-04-22T08:53:06;22.80;;;14.53;;
10491;SDS011;5293;51.464;-2.566;2023-04-22T08:55:32;23.47;;;14.27;;
10491;SDS011;5293;51.464;-2.566;2023-04-22T08:57:59;22.23;;;14.40;;
10491;SDS011;5293;51.464;-2.566;2023-04-22T09:00:27;24.27;;;14.83;;
10491;SDS011;5293;51.464;-2.566;2023-04-22T09:02:54;20.63;;;13.27;;
10491;SDS011;5293;51.464;-2.566;2023-04-22T09:05:22;20.83;;;13.77;;
10491;SDS011;5293;51.464;-2.566;2023-04-22T09:07:49;19.47;;;12.70;;
10491;SDS011;5293;51.464;-2.566;2023-04-22T09:10:16;23.58;;;14.52;;
10491;SDS011;5293;51.464;-2.566;2023-04-22T09:12:42;21.73;;;14.87;;
10491;SDS011;5293;51.464;-2.566;2023-04-22T09:15:08;20.73;;;13.23;;
10491;SDS011;5293;51.464;-2.566;2023-04-22T09:17:35;19.57;;;13.20;;
10491;SDS011;5293;51.464;-2.566;2023-04-22T09:20:03;20.97;;;13.93;;
10491;SDS011;5293;51.464;-2.566;2023-04-22T09:22:41;20.13;;;14.03;;
10491;SDS011;5293;51.464;-2.566;2023-04-22T09:25:16;19.90;;;14.17;;
10491;SDS011;5293;51.464;-2.566;2023-04-22T09:27:49;20.17;;;13.87;;
10491;SDS011;5293;51.464;-2.566;2023-04-22T09:30:17;22.93;;;15.07;;
10491;SDS011;5293;51.464;-2.566;2023-04-22T09:32:51;20.27;;;14.30;;
10491;SDS011;5293;51.464;-2.566;2023-04-22T09:35:25;22.20;;;14.73;;
10491;SDS011;5293;51.464;-2.566;2023-04-22T09:37:52;20.67;;;14.47;;
10491;SDS011;5293;51.464;-2.566;2023-04-22T09:40:18;21.97;;;15.03;;
10491;SDS011;5293;51.464;-2.566;2023-04-22T09:42:54;20.90;;;14.07;;
10491;SDS011;5293;51.464;-2.566;2023-04-22T09:48:06;25.37;;;15.80;;
10491;SDS011;5293;51.464;-2.566;2023-04-22T09:50:34;22.70;;;14.57;;
10491;SDS011;5293;51.464;-2.566;2023-04-22T09:53:10;25.63;;;16.10;;
10491;SDS011;5293;51.464;-2.566;2023-04-22T09:55:42;21.87;;;14.90;;
10491;SDS011;5293;51.464;-2.566;2023-04-22T10:03:27;22.77;;;15.30;;
10491;SDS011;5293;51.464;-2.566;2023-04-22T10:09:19;24.97;;;16.37;;
10491;SDS011;5293;51.464;-2.566;2023-04-22T10:11:47;29.27;;;18.17;;
10491;SDS011;5293;51.464;-2.566;2023-04-22T10:14:14;26.80;;;16.90;;
10491;SDS011;5293;51.464;-2.566;2023-04-22T10:16:41;28.90;;;16.37;;
10491;SDS011;5293;51.464;-2.566;2023-04-22T10:19:09;24.03;;;16.73;;
10491;SDS011;5293;51.464;-2.566;2023-04-22T10:21:39;25.77;;;17.00;;
10491;SDS011;5293;51.464;-2.566;2023-04-22T10:24:06;26.07;;;16.87;;
10491;SDS011;5293;51.464;-2.566;2023-04-22T10:26:41;25.80;;;16.17;;
10491;SDS011;5293;51.464;-2.566;2023-04-22T10:29:18;23.80;;;16.43;;
10491;SDS011;5293;51.464;-2.566;2023-04-22T10:31:50;24.50;;;15.73;;
10491;SDS011;5293;51.464;-2.566;2023-04-22T10:34:48;23.53;;;15.57;;
10491;SDS011;5293;51.464;-2.566;2023-04-22T10:37:17;23.07;;;16.27;;
10491;SDS011;5293;51.464;-2.566;2023-04-22T10:42:31;26.23;;;15.53;;
10491;SDS011;5293;51.464;-2.566;2023-04-22T10:45:00;21.67;;;15.70;;
10491;SDS011;5293;51.464;-2.566;2023-04-22T10:52:53;22.73;;;15.27;;
10491;SDS011;5293;51.464;-2.566;2023-04-22T10:55:19;24.80;;;16.40;;
10491;SDS011;5293;51.464;-2.566;2023-04-22T10:57:46;26.53;;;15.43;;
10491;SDS011;5293;51.464;-2.566;2023-04-22T11:00:23;23.53;;;16.27;;
10491;SDS011;5293;51.464;-2.566;2023-04-22T11:02:53;21.67;;;14.73;;
10491;SDS011;5293;51.464;-2.566;2023-04-22T11:05:32;20.67;;;14.63;;
10491;SDS011;5293;51.464;-2.566;2023-04-22T11:08:13;19.43;;;13.53;;
10491;SDS011;5293;51.464;-2.566;2023-04-22T11:10:43;17.73;;;13.20;;
10491;SDS011;5293;51.464;-2.566;2023-04-22T11:13:12;22.00;;;14.07;;
10491;SDS011;5293;51.464;-2.566;2023-04-22T11:15:40;17.00;;;13.07;;
10491;SDS011;5293;51.464;-2.566;2023-04-22T11:18:08;21.00;;;13.93;;
10491;SDS011;5293;51.464;-2.566;2023-04-22T11:20:37;18.73;;;13.03;;
10491;SDS011;5293;51.464;-2.566;2023-04-22T11:23:03;19.23;;;13.30;;
10491;SDS011;5293;51.464;-2.566;2023-04-22T11:25:29;17.83;;;12.43;;
10491;SDS011;5293;51.464;-2.566;2023-04-22T11:27:55;19.87;;;13.00;;
10491;SDS011;5293;51.464;-2.566;2023-04-22T11:30:22;15.13;;;11.37;;
10491;SDS011;5293;51.464;-2.566;2023-04-22T11:32:50;14.87;;;10.30;;
10491;SDS011;5293;51.464;-2.566;2023-04-22T11:37:48;14.73;;;10.77;;
10491;SDS011;5293;51.464;-2.566;2023-04-22T11:40:20;15.07;;;10.80;;
10491;SDS011;5293;51.464;-2.566;2023-04-22T11:42:58;12.73;;;10.00;;
10491;SDS011;5293;51.464;-2.566;2023-04-22T11:45:25;12.63;;;9.90;;
10491;SDS011;5293;51.464;-2.566;2023-04-22T11:47:52;13.07;;;10.17;;
10491;SDS011;5293;51.464;-2.566;2023-04-22T11:50:22;13.57;;;9.77;;
10491;SDS011;5293;51.464;-2.566;2023-04-22T11:52:55;14.70;;;11.23;;
10491;SDS011;5293;51.464;-2.566;2023-04-22T11:55:29;13.87;;;10.77;;
10491;SDS011;5293;51.464;-2.566;2023-04-22T12:00:30;13.90;;;10.20;;
10491;SDS011;5293;51.464;-2.566;2023-04-22T12:03:05;14.20;;;10.63;;
10491;SDS011;5293;51.464;-2.566;2023-04-22T12:05:35;15.23;;;10.97;;
10491;SDS011;5293;51.464;-2.566;2023-04-22T12:08:05;13.70;;;10.80;;
10491;SDS011;5293;51.464;-2.566;2023-04-22T12:10:46;14.60;;;10.40;;
10491;SDS011;5293;51.464;-2.566;2023-04-22T12:13:18;13.73;;;10.47;;
10491;SDS011;5293;51.464;-2.566;2023-04-22T12:15:57;11.70;;;9.43;;
10491;SDS011;5293;51.464;-2.566;2023-04-22T12:18:27;13.93;;;8.27;;
10491;SDS011;5293;51.464;-2.566;2023-04-22T12:20:58;11.00;;;8.27;;
10491;SDS011;5293;51.464;-2.566;2023-04-22T12:23:41;9.20;;;7.27;;
10491;SDS011;5293;51.464;-2.566;2023-04-22T12:26:08;9.60;;;7.70;;
10491;SDS011;5293;51.464;-2.566;2023-04-22T12:28:35;9.67;;;7.90;;
10491;SDS011;5293;51.464;-2.566;2023-04-22T12:31:01;10.60;;;8.07;;
10491;SDS011;5293;51.464;-2.566;2023-04-22T12:33:27;9.93;;;7.73;;
10491;SDS011;5293;51.464;-2.566;2023-04-22T12:35:53;9.87;;;7.37;;
10491;SDS011;5293;51.464;-2.566;2023-04-22T12:38:18;7.73;;;6.43;;
10491;SDS011;5293;51.464;-2.566;2023-04-22T12:40:44;8.10;;;6.80;;
10491;SDS011;5293;51.464;-2.566;2023-04-22T12:43:10;8.40;;;7.03;;
10491;SDS011;5293;51.464;-2.566;2023-04-22T12:45:36;10.07;;;7.53;;
10491;SDS011;5293;51.464;-2.566;2023-04-22T12:48:01;9.63;;;7.77;;
10491;SDS011;5293;51.464;-2.566;2023-04-22T12:50:27;9.20;;;7.00;;
10491;SDS011;5293;51.464;-2.566;2023-04-22T12:52:53;10.17;;;7.30;;
10491;SDS011;5293;51.464;-2.566;2023-04-22T12:55:19;11.07;;;8.00;;
10491;SDS011;5293;51.464;-2.566;2023-04-22T12:57:46;10.33;;;7.90;;
10491;SDS011;5293;51.464;-2.566;2023-04-22T13:00:12;11.03;;;8.10;;
10491;SDS011;5293;51.464;-2.566;2023-04-22T13:02:42;10.70;;;8.70;;
10491;SDS011;5293;51.464;-2.566;2023-04-22T13:05:09;13.20;;;8.87;;
10491;SDS011;5293;51.464;-2.566;2023-04-22T13:07:35;11.80;;;9.67;;
10491;SDS011;5293;51.464;-2.566;2023-04-22T13:10:01;10.17;;;8.80;;
10491;SDS011;5293;51.464;-2.566;2023-04-22T13:12:27;11.30;;;8.57;;
10491;SDS011;5293;51.464;-2.566;2023-04-22T13:14:53;9.97;;;8.07;;
10491;SDS011;5293;51.464;-2.566;2023-04-22T13:17:19;10.53;;;8.40;;
10491;SDS011;5293;51.464;-2.566;2023-04-22T13:19:46;12.47;;;8.80;;
10491;SDS011;5293;51.464;-2.566;2023-04-22T13:22:12;11.30;;;8.60;;
10491;SDS011;5293;51.464;-2.566;2023-04-22T13:24:38;11.93;;;9.07;;
10491;SDS011;5293;51.464;-2.566;2023-04-22T13:27:04;10.67;;;7.87;;
10491;SDS011;5293;51.464;-2.566;2023-04-22T13:29:31;9.60;;;7.63;;
10491;SDS011;5293;51.464;-2.566;2023-04-22T13:31:57;8.37;;;6.53;;
10491;SDS011;5293;51.464;-2.566;2023-04-22T13:34:23;7.27;;;6.40;;
10491;SDS011;5293;51.464;-2.566;2023-04-22T13:36:49;6.87;;;5.83;;
10491;SDS011;5293;51.464;-2.566;2023-04-22T13:39:15;7.57;;;5.83;;
10491;SDS011;5293;51.464;-2.566;2023-04-22T13:41:42;7.67;;;6.60;;
10491;SDS011;5293;51.464;-2.566;2023-04-22T13:44:12;7.90;;;6.67;;
10491;SDS011;5293;51.464;-2.566;2023-04-22T13:46:38;7.53;;;6.37;;
10491;SDS011;5293;51.464;-2.566;2023-04-22T13:49:05;7.50;;;6.67;;
10491;SDS011;5293;51.464;-2.566;2023-04-22T13:51:31;8.87;;;6.53;;
10491;SDS011;5293;51.464;-2.566;2023-04-22T13:53:57;8.10;;;6.90;;
10491;SDS011;5293;51.464;-2.566;2023-04-22T13:56:23;8.17;;;6.53;;
10491;SDS011;5293;51.464;-2.566;2023-04-22T13:58:49;7.70;;;6.60;;
10491;SDS011;5293;51.464;-2.566;2023-04-22T14:01:16;7.63;;;6.60;;
10491;SDS011;5293;51.464;-2.566;2023-04-22T14:03:42;7.83;;;6.23;;
10491;SDS011;5293;51.464;-2.566;2023-04-22T14:06:08;8.53;;;6.97;;
10491;SDS011;5293;51.464;-2.566;2023-04-22T14:08:34;7.17;;;6.10;;
10491;SDS011;5293;51.464;-2.566;2023-04-22T14:11:00;9.50;;;5.93;;
10491;SDS011;5293;51.464;-2.566;2023-04-22T14:13:27;6.50;;;5.60;;
10491;SDS011;5293;51.464;-2.566;2023-04-22T14:15:53;5.97;;;5.40;;
10491;SDS011;5293;51.464;-2.566;2023-04-22T14:18:19;7.13;;;5.67;;
10491;SDS011;5293;51.464;-2.566;2023-04-22T14:20:47;6.43;;;5.40;;
10491;SDS011;5293;51.464;-2.566;2023-04-22T14:23:13;6.57;;;5.87;;
10491;SDS011;5293;51.464;-2.566;2023-04-22T14:25:39;6.80;;;5.67;;
10491;SDS011;5293;51.464;-2.566;2023-04-22T14:28:04;7.53;;;6.03;;
10491;SDS011;5293;51.464;-2.566;2023-04-22T14:30:30;7.47;;;6.00;;
10491;SDS011;5293;51.464;-2.566;2023-04-22T14:32:56;7.67;;;5.97;;
10491;SDS011;5293;51.464;-2.566;2023-04-22T14:35:22;8.53;;;6.37;;
10491;SDS011;5293;51.464;-2.566;2023-04-22T14:37:48;8.67;;;6.40;;
10491;SDS011;5293;51.464;-2.566;2023-04-22T14:40:13;7.57;;;6.13;;
10491;SDS011;5293;51.464;-2.566;2023-04-22T14:42:39;7.47;;;5.57;;
10491;SDS011;5293;51.464;-2.566;2023-04-22T14:45:05;5.63;;;5.00;;
10491;SDS011;5293;51.464;-2.566;2023-04-22T14:47:31;6.53;;;5.07;;
10491;SDS011;5293;51.464;-2.566;2023-04-22T14:49:57;6.70;;;5.50;;
10491;SDS011;5293;51.464;-2.566;2023-04-22T14:52:22;5.57;;;5.00;;
10491;SDS011;5293;51.464;-2.566;2023-04-22T14:54:48;7.73;;;5.27;;
10491;SDS011;5293;51.464;-2.566;2023-04-22T14:57:14;7.10;;;5.70;;
10491;SDS011;5293;51.464;-2.566;2023-04-22T14:59:40;7.13;;;5.60;;
10491;SDS011;5293;51.464;-2.566;2023-04-22T15:02:07;6.53;;;5.53;;
10491;SDS011;5293;51.464;-2.566;2023-04-22T15:04:39;6.60;;;5.47;;